Flight Track Log - Related Links

Times and Time Zones

All times are in EDT time to prevent confusion due to time zone crossing. See the JUS196 flight status page for this flight to view local times or setup timezone preferences in your user account.

Time Position Orientation Groundspeed Altitude Reporting Facility
EDT Latitude Longitude Course Direction KTS MPH feet Rate Location/Type
Wed 06:01:14 AM 31.8014 -106.3856 212° Southwest 150 173 4,500  Level Albuquerque Center
Wed 06:02:20 AM 31.7597 -106.4158 212° Southwest 221 254 6,800 1,860 Climbing Albuquerque Center
Wed 06:02:54 AM 31.7408 -106.3911 132° Southeast 227 261 7,600 1,723 Climbing Albuquerque Center
Wed 06:03:54 AM 31.7644 -106.3056 72° East 285 328 9,500 1,900 Climbing Albuquerque Center
Wed 06:04:54 AM 31.8047 -106.2089 64° Northeast 329 379 11,400 1,983 Climbing Albuquerque Center
Wed 06:05:55 AM 31.8447 -106.0981 67° East 366 421 13,500 2,430 Climbing Albuquerque Center
Wed 06:06:55 AM 31.9022 -105.9742 61° Northeast 388 447 16,300 2,400 Climbing Albuquerque Center
Wed 06:07:55 AM 31.9639 -105.8644 56° Northeast 404 465 18,300 2,200 Climbing Albuquerque Center
Wed 06:08:55 AM 32.0422 -105.7611 48° Northeast 419 482 20,700 2,250 Climbing Albuquerque Center
Wed 06:09:55 AM 32.1044 -105.6592 54° Northeast 428 493 22,800 1,884 Climbing Albuquerque Center
Wed 06:10:56 AM 32.1747 -105.5461 54° Northeast 428 493 24,500 1,488 Climbing Albuquerque Center
Wed 06:11:56 AM 32.2467 -105.4228 55° Northeast 448 516 25,800 1,300 Climbing Albuquerque Center
Wed 06:12:56 AM 32.3269 -105.2908 54° Northeast 465 535 27,100 1,250 Climbing Albuquerque Center
Wed 06:13:56 AM 32.4006 -105.1647 55° Northeast 477 549 28,300 1,250 Climbing Albuquerque Center
Wed 06:14:56 AM 32.4781 -105.0303 56° Northeast 489 563 29,600 1,350 Climbing Albuquerque Center
Wed 06:15:56 AM 32.5633 -104.8906 54° Northeast 496 571 31,000 1,339 Climbing Albuquerque Center
Wed 06:16:57 AM 32.6500 -104.7511 54° Northeast 491 565 32,300 1,190 Climbing Albuquerque Center
Wed 06:17:57 AM 32.7331 -104.6233 52° Northeast 491 565 33,400 950 Climbing Albuquerque Center
Wed 06:18:57 AM 32.8117 -104.4856 56° Northeast 503 579 34,200 600 Climbing Albuquerque Center
Wed 06:19:57 AM 32.8964 -104.3514 53° Northeast 509 586 34,600 400 Climbing Albuquerque Center
Wed 06:20:57 AM 32.9806 -104.2097 55° Northeast 524 603 35,000 198 Climbing Albuquerque Center
Wed 06:21:58 AM 33.0661 -104.0675 54° Northeast 529 609 35,000  Level Albuquerque Center
Wed 06:22:58 AM 33.1556 -103.9322 52° Northeast 524 603 35,000  Level Albuquerque Center
Wed 06:23:58 AM 33.2392 -103.7894 55° Northeast 526 605 35,000  Level Albuquerque Center
Wed 06:24:58 AM 33.3206 -103.6542 54° Northeast 520 598 35,000  Level Albuquerque Center
Wed 06:25:58 AM 33.4042 -103.5142 54° Northeast 515 593 35,000  Level Albuquerque Center
Wed 06:26:59 AM 33.4861 -103.3694 56° Northeast 522 601 35,000  Level Albuquerque Center
Wed 06:27:59 AM 33.5747 -103.2289 53° Northeast 523 602 35,000  Level Albuquerque Center
Wed 06:28:59 AM 33.6553 -103.0858 56° Northeast 519 597 35,000  Level Albuquerque Center
Wed 06:29:59 AM 33.7417 -102.9461 53° Northeast 519 597 35,000  Level Albuquerque Center
Wed 06:30:59 AM 33.8219 -102.8008 56° Northeast 520 598 35,000  Level Albuquerque Center
Wed 06:32:00 AM 33.9050 -102.6597 55° Northeast 518 596 35,000  Level Albuquerque Center
Wed 06:33:00 AM 33.9844 -102.5175 56° Northeast 514 592 35,000  Level Albuquerque Center
Wed 06:34:00 AM 34.0639 -102.3758 56° Northeast 512 589 35,000  Level Albuquerque Center
Wed 06:35:00 AM 34.1453 -102.2381 54° Northeast 507 583 35,000  Level Albuquerque Center
Wed 06:36:00 AM 34.2133 -102.1017 59° Northeast 504 580 35,000  Level Albuquerque Center
Wed 06:37:01 AM 34.2914 -101.9622 56° Northeast 505 581 35,000  Level Albuquerque Center
Wed 06:38:01 AM 34.3711 -101.8261 55° Northeast 501 577 35,000  Level Albuquerque Center
Wed 06:39:01 AM 34.4472 -101.6861 57° Northeast 500 575 35,000  Level Albuquerque Center
Wed 06:40:01 AM 34.5269 -101.5472 55° Northeast 503 579 35,000  Level Albuquerque Center
Wed 06:41:01 AM 34.6022 -101.4081 57° Northeast 499 574 35,000  Level Albuquerque Center
Wed 06:42:02 AM 34.6817 -101.2722 55° Northeast 499 574 35,000  Level Albuquerque Center
Wed 06:43:02 AM 34.7717 -101.1014 57° Northeast 501 577 35,000  Level Albuquerque Center
Wed 06:44:02 AM 34.8506 -100.9631 55° Northeast 503 579 35,000  Level Albuquerque Center
Wed 06:45:02 AM 34.9283 -100.8228 56° Northeast 503 579 35,000  Level Albuquerque Center
Wed 06:46:03 AM 35.0028 -100.6792 58° Northeast 505 581 35,000  Level Albuquerque Center
Wed 06:47:03 AM 35.0836 -100.5386 55° Northeast 506 582 35,000  Level Albuquerque Center
Wed 06:49:06 AM 35.2411 -100.2403 57° Northeast 509 586 35,000  Level Kansas City Center
Wed 06:50:07 AM 35.3186 -100.0956 57° Northeast 509 586 35,000  Level Kansas City Center
Wed 06:51:03 AM 35.3783 -99.9775 58° Northeast 509 586 35,000  Level Albuquerque Center
Wed 06:52:04 AM 35.4578 -99.8322 56° Northeast 510 587 35,000  Level Albuquerque Center
Wed 06:53:04 AM 35.5333 -99.6858 58° Northeast 509 586 35,000  Level Albuquerque Center
Wed 06:54:10 AM 35.6272 -99.5119 56° Northeast 508 585 35,000  Level Kansas City Center
Wed 06:55:07 AM 35.7039 -99.3678 57° Northeast 507 583 35,000  Level Kansas City Center
Wed 06:56:09 AM 35.7769 -99.2189 59° Northeast 502 578 35,000  Level Kansas City Center
Wed 06:57:11 AM 35.8558 -99.0772 55° Northeast 502 578 35,000  Level Kansas City Center
Wed 06:58:08 AM 35.9278 -98.9308 59° Northeast 500 575 35,000  Level Kansas City Center
Wed 06:59:10 AM 36.0050 -98.7881 56° Northeast 500 575 35,000  Level Kansas City Center
Wed 07:00:09 AM 36.0722 -98.6544 58° Northeast 498 573 35,000  Level Kansas City Center
Wed 07:01:12 AM 36.1481 -98.5119 57° Northeast 498 573 35,000  Level Kansas City Center
Wed 07:02:10 AM 36.2219 -98.3664 58° Northeast 498 573 35,000  Level Kansas City Center
Wed 07:03:11 AM 36.2950 -98.2225 58° Northeast 496 571 35,000  Level Kansas City Center
Wed 07:04:10 AM 36.3700 -98.0789 57° Northeast 495 570 35,000  Level Kansas City Center
Wed 07:05:13 AM 36.4406 -97.9294 60° Northeast 499 574 35,000  Level Kansas City Center
Wed 07:06:12 AM 36.5172 -97.7856 56° Northeast 498 573 35,000  Level Kansas City Center
Wed 07:07:11 AM 36.5886 -97.6339 60° Northeast 499 574 35,000  Level Kansas City Center
Wed 07:08:14 AM 36.6642 -97.4869 57° Northeast 506 582 35,000  Level Kansas City Center
Wed 07:09:15 AM 36.7408 -97.3228 60° Northeast 507 583 35,000  Level Kansas City Center
Wed 07:10:15 AM 36.8161 -97.1739 58° Northeast 507 583 35,000  Level Kansas City Center
Wed 07:11:15 AM 36.8833 -97.0383 58° Northeast 508 585 35,000  Level Kansas City Center
Wed 07:12:15 AM 36.9525 -96.8892 60° Northeast 502 578 35,000  Level Kansas City Center
Wed 07:13:15 AM 37.0372 -96.7222 58° Northeast 503 579 35,000  Level Kansas City Center
Wed 07:14:16 AM 37.1061 -96.5678 61° Northeast 506 582 35,000  Level Kansas City Center
Wed 07:15:17 AM 37.1825 -96.4183 57° Northeast 506 582 35,000  Level Kansas City Center
Wed 07:16:18 AM 37.2531 -96.2642 60° Northeast 507 583 35,000  Level Kansas City Center
Wed 07:17:19 AM 37.3200 -96.1097 61° Northeast 503 579 35,000  Level Kansas City Center
Wed 07:18:19 AM 37.3942 -95.9600 58° Northeast 500 575 35,000  Level Kansas City Center
Wed 07:19:20 AM 37.4672 -95.8125 58° Northeast 497 572 35,000  Level Kansas City Center
Wed 07:20:19 AM 37.5358 -95.6597 60° Northeast 498 573 35,000  Level Kansas City Center
Wed 07:21:19 AM 37.6103 -95.5125 57° Northeast 496 571 35,000  Level Kansas City Center
Wed 07:22:22 AM 37.6764 -95.3611 61° Northeast 492 566 35,000  Level Kansas City Center
Wed 07:23:20 AM 37.7508 -95.2128 58° Northeast 497 572 35,000  Level Kansas City Center
Wed 07:24:22 AM 37.8239 -95.0519 60° Northeast 492 566 35,000  Level Kansas City Center
Wed 07:25:22 AM 37.8900 -94.9075 60° Northeast 494 568 35,000  Level Kansas City Center
Wed 07:26:23 AM 37.9578 -94.7661 59° Northeast 494 568 35,000  Level Kansas City Center
Wed 07:27:24 AM 38.0344 -94.5978 60° Northeast 494 568 35,000  Level Kansas City Center
Wed 07:28:25 AM 38.0992 -94.4522 60° Northeast 495 570 35,000  Level Kansas City Center
Wed 07:29:28 AM 38.1636 -94.3078 60° Northeast 495 570 35,000  Level Kansas City Center
Wed 07:30:28 AM 38.2392 -94.1389 60° Northeast 493 567 35,000  Level Kansas City Center
Wed 07:31:28 AM 38.3092 -93.9783 61° Northeast 494 568 35,000  Level Kansas City Center
Wed 07:32:30 AM 38.3761 -93.8281 60° Northeast 489 563 35,000  Level Kansas City Center
Wed 07:33:30 AM 38.4453 -93.6758 60° Northeast 490 564 35,000  Level Kansas City Center
Wed 07:34:31 AM 38.5092 -93.5203 62° Northeast 492 566 35,000  Level Kansas City Center
Wed 07:35:33 AM 38.5800 -93.3706 59° Northeast 489 563 35,000  Level Kansas City Center
Wed 07:36:33 AM 38.6436 -93.2156 62° Northeast 489 563 35,000  Level Kansas City Center
Wed 07:37:34 AM 38.7114 -93.0647 60° Northeast 487 560 35,000  Level Kansas City Center
Wed 07:38:35 AM 38.7789 -92.9092 61° Northeast 490 564 35,000  Level Kansas City Center
Wed 07:39:36 AM 38.8428 -92.7547 62° Northeast 489 563 35,000  Level Kansas City Center
Wed 07:40:34 AM 38.9094 -92.6028 61° Northeast 486 559 35,000  Level Kansas City Center
Wed 07:41:38 AM 38.9736 -92.4469 62° Northeast 488 562 35,000  Level Kansas City Center
Wed 07:42:39 AM 39.0419 -92.2958 60° Northeast 487 560 35,000  Level Kansas City Center
Wed 07:43:39 AM 39.1044 -92.1403 63° Northeast 485 558 35,000  Level Kansas City Center
Wed 07:44:41 AM 39.1700 -91.9833 62° Northeast 490 564 35,000  Level Kansas City Center
Wed 07:45:43 AM 39.2339 -91.8250 62° Northeast 493 567 35,000  Level Kansas City Center
Wed 07:46:43 AM 39.2975 -91.6825 60° Northeast 494 568 35,000  Level Kansas City Center
Wed 07:47:43 AM 39.3611 -91.5233 63° Northeast 497 572 35,000  Level Kansas City Center
Wed 07:48:44 AM 39.4153 -91.3589 67° East 498 573 35,000  Level Kansas City Center
Wed 07:49:46 AM 39.4811 -91.2017 61° Northeast 496 571 35,000  Level Kansas City Center
Wed 07:50:47 AM 39.5531 -91.0475 59° Northeast 499 574 35,000  Level Kansas City Center
Wed 07:51:48 AM 39.6256 -90.8572 64° Northeast 493 567 35,000  Level Kansas City Center
Wed 07:52:49 AM 39.6942 -90.7019 60° Northeast 494 568 35,000  Level Kansas City Center
Wed 07:53:49 AM 39.7575 -90.5489 62° Northeast 491 565 35,000  Level Kansas City Center
Wed 07:54:50 AM 39.8197 -90.3872 63° Northeast 497 572 35,000  Level Kansas City Center
Wed 07:55:50 AM 39.8842 -90.2317 62° Northeast 493 567 35,000  Level Chicago Center
Wed 07:56:51 AM 39.9439 -90.0711 64° Northeast 495 570 35,000  Level Chicago Center
Wed 07:57:53 AM 40.0086 -89.9133 62° Northeast 495 570 35,000  Level Chicago Center
Wed 07:58:55 AM 40.0694 -89.7531 64° Northeast 496 571 35,000  Level Chicago Center
Wed 07:59:56 AM 40.1294 -89.5525 69° East 501 577 35,000  Level Chicago Center
Wed 08:00:58 AM 40.1597 -89.3767 77° East 500 575 35,000  Level Chicago Center
Wed 08:01:59 AM 40.2003 -89.2042 73° East 500 575 35,000  Level Chicago Center
Wed 08:03:01 AM 40.2353 -89.0300 75° East 498 573 35,000  Level Chicago Center
Wed 08:04:02 AM 40.2736 -88.8553 74° East 500 575 35,000  Level Chicago Center
Wed 08:05:04 AM 40.3108 -88.6800 74° East 501 577 35,000  Level Chicago Center
Wed 08:06:06 AM 40.3478 -88.4981 75° East 501 577 35,000  Level Chicago Center
Wed 08:07:07 AM 40.3917 -88.2897 74° East 500 575 35,000  Level Chicago Center
Wed 08:08:09 AM 40.4283 -88.1150 75° East 499 574 35,000  Level Chicago Center
Wed 08:09:11 AM 40.4664 -87.9428 74° East 498 573 35,000  Level Chicago Center
Wed 08:10:12 AM 40.5019 -87.7672 75° East 500 575 35,000  Level Chicago Center
Wed 08:11:14 AM 40.5361 -87.5928 75° East 500 575 35,000  Level Chicago Center
Wed 08:12:15 AM 40.5728 -87.4164 75° East 501 577 35,000 -390 Level Chicago Center
Wed 08:13:17 AM 40.6086 -87.2042 77° East 500 575 34,200 -774 Descending Chicago Center
Wed 08:14:19 AM 40.6408 -87.0256 77° East 503 579 33,400 -780 Descending Chicago Center
Wed 08:15:20 AM 40.6761 -86.8472 75° East 504 580 32,600 -780 Descending Chicago Center
Wed 08:16:22 AM 40.7122 -86.6658 75° East 507 583 31,800 -732 Descending Chicago Center
Wed 08:17:23 AM 40.7489 -86.4864 75° East 510 587 31,100 -634 Descending Chicago Center
Wed 08:18:25 AM 40.7817 -86.3106 76° East 497 572 30,500 -726 Descending Chicago Center
Wed 08:19:27 AM 40.8139 -86.1417 76° East 479 551 29,600 -1,024 Descending Chicago Center
Wed 08:20:28 AM 40.8492 -85.9383 77° East 475 547 28,400 -1,073 Descending Chicago Center
Wed 08:21:30 AM 40.8797 -85.7736 76° East 466 536 27,400 -919 Descending Chicago Center
Wed 08:22:32 AM 40.9081 -85.6092 77° East 463 533 26,500 -1,024 Descending Chicago Center
Wed 08:23:33 AM 40.9350 -85.4469 78° East 458 527 25,300 -1,220 Descending Chicago Center
Wed 08:24:35 AM 40.9611 -85.2992 77° East 426 490 24,000 -1,113 Descending Chicago Center
Wed 08:25:37 AM 41.0036 -85.1631 67° East 415 478 23,000 -1,220 Descending Chicago Center
Wed 08:26:38 AM 41.1056 -85.1314 13° North 391 450 21,500 -976 Descending Chicago Center
Wed 08:27:40 AM 41.2336 -85.0950 12° North 390 449 21,000 -242 Descending Chicago Center
Wed 08:28:42 AM 41.3392 -85.0472 19° North 400 460 21,000 -49 Level Chicago Center
Wed 08:29:43 AM 41.4442 -85.0092 15° North 398 458 20,900 -435 Descending Chicago Center
Wed 08:30:46 AM 41.5439 -84.9672 17° North 386 444 20,100 -968 Descending Chicago Center
Wed 08:31:47 AM 41.6400 -84.9333 15° North 366 421 18,900 -1,307 Descending Chicago Center
Wed 08:32:27 AM 41.7206 -84.8928 21° North 367 422 17,900 -1,500 Descending Cleveland Center
Wed 08:33:27 AM 41.7650 -84.7594 66° East 343 395 16,400 -1,450 Descending Cleveland Center
Wed 08:34:27 AM 41.8008 -84.6308 69° East 350 403 15,000 -1,900 Descending Cleveland Center
Wed 08:35:27 AM 41.8464 -84.5194 61° Northeast 345 397 12,600 -2,150 Descending Cleveland Center
Wed 08:36:27 AM 41.8875 -84.4186 61° Northeast 326 375 10,700 -2,300 Descending Cleveland Center
Wed 08:37:27 AM 41.9219 -84.3203 65° Northeast 297 342 8,000 -1,714 Descending Cleveland Center
Wed 08:38:33 AM 41.9544 -84.2158 67° East 264 304 7,100 -500 Descending Cleveland Center
Wed 08:39:27 AM 41.9819 -84.1392 64° Northeast 278 320 7,000 -689 Descending Cleveland Center
Wed 08:40:35 AM 42.0508 -84.0675 38° Northeast 248 285 5,700 -1,349 Descending Cleveland Center
Wed 08:41:36 AM 42.0825 -83.9825 63° Northeast 255 293 4,100 -1,078 Descending Cleveland Center
Wed 08:42:43 AM 42.1122 -83.8975 65° Northeast 225 259 3,400 -517 Descending Cleveland Center
Wed 08:43:32 AM 42.1283 -83.8450 68° East 184 212 3,100 -164 Descending Cleveland Center
Wed 08:44:33 AM 42.1447 -83.7842 70° East 174 200 3,100  Level Cleveland Center
Wed 08:45:40 AM 42.1592 -83.7094 75° East 165 190 3,100 -148 Level Cleveland Center
Wed 08:46:35 AM 42.1731 -83.6625 68° East 144 166 2,800 -422 Descending Cleveland Center
Wed 08:47:48 AM 42.1869 -83.6097 70° East 122 140 2,200 -627 Descending Cleveland Center
Wed 08:48:49 AM 42.2086 -83.5744 50° Northeast 126 145 1,400 -787 Descending Cleveland Center

Login

Don't have an account? Register now (free) for customized features, flight alerts, and more!